^^
Station Historical Data
Daily Summary for November 5, 2017 Units:  English    Metric   Both
« Previous Day
Next Day »
Daily Weekly Monthly Yearly Custom
  High: Low: Average:
Temperature: 59.1 °F 48.6 °F 53.7 °F
Dew Point: 58.2 °F 44.5 °F 51.2 °F
Humidity: 97% 79% 91%
Wind Speed: 3.0mph 0.0mph 0.5mph
Wind Gust: 10.0mph - -
Wind- - South
Pressure: 30.35 in 30.03 in -
Precipitation: 0.00 in    
Historical Graphs
 
 
Tabular Data for November 5, 2017
Time Temperature Dew Point Pressure Wind Wind Speed Wind Gust Humidity Rainfall Rate (Hourly) Conditions
00:00 49.1 °F 44.5 °F 30.33 in North 1.0 mph 4.0 mph 84% 0.00 in BKN
00:10 49.9 °F 44.9 °F 30.33 in Calm   3.0 mph 83% 0.00 in OVC
00:20 50.6 °F 45.3 °F 30.34 in Calm   3.0 mph 82% 0.00 in OVC
00:30 51.0 °F 45.4 °F 30.35 in WSW 1.0 mph 3.0 mph 81% 0.00 in OVC
00:40 51.4 °F 45.4 °F 30.35 in NNW 1.0 mph 3.0 mph 80% 0.00 in OVC
00:50 51.8 °F 45.5 °F 30.35 in NW 1.0 mph 5.0 mph 79% 0.00 in OVC
01:00 52.0 °F 45.7 °F 30.35 in Calm   3.0 mph 79% 0.00 in OVC
01:10 51.9 °F 45.6 °F 30.35 in NE 2.0 mph 6.0 mph 79% 0.00 in OVC
01:20 52.0 °F 46.0 °F 30.35 in NW 1.0 mph 5.0 mph 80% 0.00 in OVC
01:30 52.1 °F 45.8 °F 30.35 in Calm   4.0 mph 79% 0.00 in OVC
01:40 52.1 °F 46.1 °F 30.35 in Calm   5.0 mph 80% 0.00 in OVC
01:50 52.1 °F 46.1 °F 30.34 in NW 1.0 mph 5.0 mph 80% 0.00 in OVC
01:00 51.6 °F 46.6 °F 30.32 in NNE 1.0 mph 5.0 mph 83% 0.00 in OVC
01:10 51.1 °F 46.7 °F 30.31 in North 2.0 mph 10.0 mph 85% 0.01 in RA
01:20 50.7 °F 46.7 °F 30.31 in NNE 2.0 mph 6.0 mph 86% 0.00 in OVC
01:30 50.7 °F 46.9 °F 30.31 in WSW 1.0 mph 7.0 mph 87% 0.00 in OVC
01:40 50.6 °F 46.9 °F 30.31 in North 2.0 mph 5.0 mph 87% 0.00 in OVC
01:50 50.6 °F 46.9 °F 30.30 in Calm   7.0 mph 87% 0.00 in OVC
02:00 50.7 °F 47.0 °F 30.30 in NE 2.0 mph 9.0 mph 87% 0.00 in OVC
02:10 50.8 °F 47.1 °F 30.30 in East 2.0 mph 6.0 mph 87% 0.00 in OVC
02:20 50.9 °F 46.9 °F 30.29 in NNW 2.0 mph 7.0 mph 86% 0.00 in OVC
02:30 51.0 °F 46.9 °F 30.29 in West 1.0 mph 7.0 mph 86% 0.00 in OVC
02:40 51.0 °F 46.9 °F 30.29 in Calm   6.0 mph 86% 0.00 in OVC
02:50 50.9 °F 46.9 °F 30.29 in East 1.0 mph 5.0 mph 86% 0.00 in OVC
03:00 51.0 °F 47.0 °F 30.31 in Calm   7.0 mph 86% 0.00 in OVC
03:10 51.0 °F 47.0 °F 30.31 in Calm   3.0 mph 86% 0.00 in OVC
03:20 51.1 °F 47.1 °F 30.31 in ENE 1.0 mph 4.0 mph 86% 0.00 in OVC
03:30 51.2 °F 46.8 °F 30.31 in NE 1.0 mph 4.0 mph 85% 0.00 in OVC
03:40 51.4 °F 46.7 °F 30.31 in North 1.0 mph 5.0 mph 84% 0.00 in OVC
03:50 51.5 °F 46.8 °F 30.32 in Calm   3.0 mph 84% 0.00 in OVC
04:00 51.1 °F 46.8 °F 30.31 in Calm   3.0 mph 85% 0.00 in OVC
04:10 50.6 °F 46.6 °F 30.31 in Calm   1.0 mph 86% 0.00 in OVC
04:20 50.2 °F 46.5 °F 30.31 in Calm   1.0 mph 87% 0.00 in OVC
04:30 49.9 °F 46.2 °F 30.31 in Calm   2.0 mph 87% 0.00 in OVC
04:40 49.7 °F 46.5 °F 30.31 in Calm   4.0 mph 89% 0.00 in OVC
04:50 49.3 °F 46.2 °F 30.31 in Calm   2.0 mph 89% 0.01 in RA
05:00 49.0 °F 46.2 °F 30.31 in Calm   2.0 mph 90% 0.00 in OVC
05:10 48.9 °F 46.4 °F 30.31 in Calm   3.0 mph 91% 0.00 in OVC
05:20 48.8 °F 46.3 °F 30.31 in Calm   3.0 mph 91% 0.00 in OVC
05:30 48.7 °F 46.5 °F 30.31 in Calm   1.0 mph 92% 0.00 in OVC
05:40 48.7 °F 46.5 °F 30.31 in Calm   2.0 mph 92% 0.00 in OVC
05:50 48.7 °F 46.5 °F 30.31 in NNE 1.0 mph 4.0 mph 92% 0.00 in OVC
06:00 48.6 °F 46.4 °F 30.31 in ENE 1.0 mph 4.0 mph 92% 0.00 in OVC
06:10 48.6 °F 46.4 °F 30.31 in Calm   3.0 mph 92% 0.00 in OVC
06:20 48.7 °F 46.5 °F 30.30 in Calm   4.0 mph 92% 0.00 in OVC
06:30 48.7 °F 46.5 °F 30.30 in Calm   3.0 mph 92% 0.00 in OVC
06:40 48.8 °F 46.6 °F 30.30 in Calm   3.0 mph 92% 0.00 in OVC
06:50 48.8 °F 46.6 °F 30.30 in Calm   2.0 mph 92% 0.00 in OVC
07:00 49.1 °F 46.8 °F 30.30 in ESE 1.0 mph 6.0 mph 92% 0.00 in OVC
07:10 49.2 °F 46.7 °F 30.30 in SE 1.0 mph 4.0 mph 91% 0.00 in BKN
07:20 49.4 °F 46.9 °F 30.30 in Calm   3.0 mph 91% 0.00 in BKN
07:30 49.6 °F 46.8 °F 30.30 in East 1.0 mph 4.0 mph 90% 0.00 in BKN
07:40 49.9 °F 47.1 °F 30.30 in Calm   5.0 mph 90% 0.00 in BKN
07:50 50.0 °F 46.9 °F 30.30 in Calm   3.0 mph 89% 0.00 in BKN
08:00 50.2 °F 47.1 °F 30.30 in WSW 1.0 mph 3.0 mph 89% 0.00 in BKN
08:10 50.4 °F 47.3 °F 30.30 in North 1.0 mph 4.0 mph 89% 0.00 in BKN
08:20 50.6 °F 47.2 °F 30.30 in North 2.0 mph 5.0 mph 88% 0.00 in BKN
08:30 50.9 °F 47.5 °F 30.30 in NNE 2.0 mph 6.0 mph 88% 0.00 in BKN
08:40 51.2 °F 47.5 °F 30.30 in Calm   3.0 mph 87% 0.00 in BKN
08:50 51.4 °F 47.7 °F 30.30 in Calm   4.0 mph 87% 0.00 in BKN
09:00 51.6 °F 47.9 °F 30.29 in Calm   6.0 mph 87% 0.00 in BKN
09:10 51.8 °F 47.7 °F 30.29 in Calm   6.0 mph 86% 0.00 in BKN
09:20 52.2 °F 48.1 °F 30.29 in NE 1.0 mph 5.0 mph 86% 0.00 in BKN
09:30 52.2 °F 48.1 °F 30.29 in NNE 1.0 mph 5.0 mph 86% 0.00 in BKN
09:40 52.4 °F 48.3 °F 30.28 in North 1.0 mph 4.0 mph 86% 0.00 in BKN
09:50 52.5 °F 48.5 °F 30.28 in NW 1.0 mph 7.0 mph 86% 0.00 in BKN
10:00 52.8 °F 48.7 °F 30.28 in North 3.0 mph 8.0 mph 86% 0.00 in BKN
10:10 53.0 °F 48.9 °F 30.27 in NW 1.0 mph 5.0 mph 86% 0.00 in -DZ
10:20 53.1 °F 49.3 °F 30.27 in North 1.0 mph 3.0 mph 87% 0.00 in -DZ
10:30 53.1 °F 49.6 °F 30.27 in Calm   7.0 mph 88% 0.00 in -DZ
10:40 53.1 °F 49.6 °F 30.26 in NE 2.0 mph 6.0 mph 88% 0.00 in -DZ
10:50 53.2 °F 50.1 °F 30.26 in WNW 1.0 mph 5.0 mph 89% 0.00 in -DZ
11:00 53.4 °F 50.2 °F 30.25 in North 2.0 mph 10.0 mph 89% 0.00 in -DZ
11:10 53.8 °F 50.6 °F 30.25 in WNW 1.0 mph 7.0 mph 89% 0.00 in OVC
11:20 54.1 °F 51.2 °F 30.25 in Calm   7.0 mph 90% 0.00 in OVC
11:30 54.2 °F 51.0 °F 30.24 in East 2.0 mph 7.0 mph 89% 0.00 in OVC
11:40 54.1 °F 51.2 °F 30.24 in Calm   5.0 mph 90% 0.00 in OVC
11:50 54.2 °F 51.3 °F 30.23 in NE 1.0 mph 5.0 mph 90% 0.00 in OVC
12:00 54.1 °F 51.2 °F 30.23 in ESE 1.0 mph 5.0 mph 90% 0.00 in OVC
12:10 54.1 °F 51.5 °F 30.23 in Calm   5.0 mph 91% 0.00 in -DZ
12:20 54.3 °F 51.7 °F 30.22 in WNW 1.0 mph 5.0 mph 91% 0.00 in -DZ
12:30 54.3 °F 52.0 °F 30.21 in Calm   3.0 mph 92% 0.00 in -DZ
12:40 54.2 °F 51.9 °F 30.21 in East 1.0 mph 5.0 mph 92% 0.00 in -DZ
12:50 54.3 °F 52.3 °F 30.20 in ENE 1.0 mph 6.0 mph 93% 0.00 in -DZ
13:00 54.5 °F 52.5 °F 30.20 in North 1.0 mph 4.0 mph 93% 0.00 in -DZ
13:10 54.6 °F 52.6 °F 30.19 in Calm   6.0 mph 93% 0.00 in -DZ
13:20 54.6 °F 52.9 °F 30.19 in Calm   4.0 mph 94% 0.00 in -DZ
13:30 54.7 °F 53.0 °F 30.19 in NW 1.0 mph 4.0 mph 94% 0.00 in -DZ
13:40 54.8 °F 53.1 °F 30.19 in Calm   2.0 mph 94% 0.00 in -DZ
13:50 55.1 °F 53.4 °F 30.18 in Calm   5.0 mph 94% 0.00 in -DZ
14:00 55.1 °F 53.4 °F 30.18 in NW 1.0 mph 4.0 mph 94% 0.00 in -DZ
14:10 55.2 °F 53.8 °F 30.18 in West 1.0 mph 2.0 mph 95% 0.00 in -DZ
14:20 55.4 °F 54.0 °F 30.18 in Calm   3.0 mph 95% 0.00 in -DZ
14:30 55.5 °F 54.1 °F 30.18 in Calm   5.0 mph 95% 0.00 in -DZ
14:40 55.7 °F 54.3 °F 30.17 in Calm   4.0 mph 95% 0.00 in -DZ
14:50 55.8 °F 54.4 °F 30.16 in Calm   3.0 mph 95% 0.00 in -DZ
15:00 55.8 °F 54.4 °F 30.16 in Calm   4.0 mph 95% 0.00 in -DZ
15:10 56.0 °F 54.6 °F 30.15 in NE 2.0 mph 5.0 mph 95% 0.00 in -DZ
15:20 55.9 °F 54.5 °F 30.15 in NW 1.0 mph 4.0 mph 95% 0.00 in -DZ
15:30 56.0 °F 54.9 °F 30.15 in Calm   5.0 mph 96% 0.01 in -DZ
15:40 56.1 °F 55.0 °F 30.15 in North 1.0 mph 3.0 mph 96% 0.00 in -DZ
15:50 56.1 °F 55.0 °F 30.15 in Calm   2.0 mph 96% 0.00 in -DZ
16:00 56.2 °F 55.1 °F 30.14 in Calm   2.0 mph 96% 0.00 in -DZ
16:10 56.1 °F 55.0 °F 30.15 in Calm   3.0 mph 96% 0.00 in -DZ
16:20 56.1 °F 55.0 °F 30.15 in Calm   2.0 mph 96% 0.00 in -DZ
16:30 56.1 °F 55.0 °F 30.14 in Calm   1.0 mph 96% 0.00 in -DZ
16:40 56.1 °F 55.0 °F 30.13 in Calm   2.0 mph 96% 0.00 in -DZ
16:50 56.1 °F 55.0 °F 30.13 in Calm   2.0 mph 96% 0.00 in -DZ
17:00 56.1 °F 55.0 °F 30.13 in Calm   1.0 mph 96% 0.01 in -DZ
17:10 56.1 °F 55.0 °F 30.14 in Calm   3.0 mph 96% 0.00 in -RA
17:20 56.2 °F 55.1 °F 30.14 in Calm     96% 0.00 in -RA
17:40 56.4 °F 55.3 °F 30.12 in Calm   1.0 mph 96% 0.00 in -RA
17:50 56.5 °F 55.4 °F 30.12 in Calm   1.0 mph 96% 0.00 in -RA
18:00 56.7 °F 55.8 °F 30.11 in Calm   3.0 mph 97% 0.00 in -RA
18:10 56.8 °F 56.0 °F 30.11 in Calm   2.0 mph 97% 0.00 in CLR
18:20 57.0 °F 56.2 °F 30.10 in Calm   2.0 mph 97% 0.00 in CLR
18:30 57.3 °F 56.5 °F 30.10 in NNW 1.0 mph 2.0 mph 97% 0.00 in CLR
18:40 57.5 °F 56.7 °F 30.10 in Calm   1.0 mph 97% 0.00 in CLR
18:50 57.6 °F 56.8 °F 30.10 in Calm   1.0 mph 97% 0.00 in CLR
19:10 57.8 °F 57.0 °F 30.10 in Calm   1.0 mph 97% 0.00 in CLR
19:20 57.9 °F 57.1 °F 30.10 in Calm   1.0 mph 97% 0.00 in CLR
19:30 57.9 °F 57.1 °F 30.11 in Calm   3.0 mph 97% 0.00 in CLR
19:40 57.9 °F 57.1 °F 30.10 in Calm     97% 0.00 in CLR
19:50 57.8 °F 57.0 °F 30.09 in Calm   1.0 mph 97% 0.00 in CLR
20:00 57.9 °F 57.1 °F 30.08 in Calm   1.0 mph 97% 0.00 in CLR
20:10 58.0 °F 57.2 °F 30.08 in Calm   1.0 mph 97% 0.00 in CLR
20:20 58.0 °F 57.2 °F 30.08 in Calm   1.0 mph 97% 0.00 in CLR
20:30 58.2 °F 57.4 °F 30.08 in Calm   1.0 mph 97% 0.00 in CLR
20:40 58.3 °F 57.5 °F 30.07 in Calm   1.0 mph 97% 0.00 in CLR
20:50 58.5 °F 57.6 °F 30.08 in Calm   2.0 mph 97% 0.00 in CLR
21:00 58.6 °F 57.8 °F 30.08 in South 1.0 mph 3.0 mph 97% 0.00 in CLR
21:10 58.7 °F 57.9 °F 30.08 in SSW 1.0 mph 4.0 mph 97% 0.00 in CLR
21:20 58.8 °F 58.0 °F 30.07 in Calm   3.0 mph 97% 0.00 in CLR
21:30 58.9 °F 58.1 °F 30.07 in Calm   3.0 mph 97% 0.00 in CLR
21:40 59.0 °F 58.2 °F 30.07 in Calm   3.0 mph 97% 0.00 in CLR
21:50 59.0 °F 58.2 °F 30.07 in Calm   5.0 mph 97% 0.00 in CLR
22:00 59.1 °F 58.2 °F 30.07 in Calm   4.0 mph 97% 0.00 in CLR
22:10 59.1 °F 58.2 °F 30.06 in Calm   5.0 mph 97% 0.00 in CLR
22:30 59.0 °F 58.2 °F 30.06 in SSE 1.0 mph 4.0 mph 97% 0.00 in CLR
22:40 58.9 °F 58.1 °F 30.06 in SSW 1.0 mph 4.0 mph 97% 0.00 in CLR
22:50 58.9 °F 58.1 °F 30.05 in South 1.0 mph 5.0 mph 97% 0.00 in CLR
23:10 59.0 °F 58.1 °F 30.04 in Calm   6.0 mph 97% 0.00 in CLR
23:20 59.0 °F 58.1 °F 30.04 in SSW 2.0 mph 8.0 mph 97% 0.00 in CLR
23:30 58.9 °F 58.1 °F 30.04 in SSW 1.0 mph 6.0 mph 97% 0.00 in CLR
23:40 58.8 °F 58.0 °F 30.04 in SSW 1.0 mph 8.0 mph 97% 0.00 in CLR
23:50 58.8 °F 57.9 °F 30.04 in South 1.0 mph 6.0 mph 97% 0.00 in CLR
23:59 58.7 °F 57.9 °F 30.03 in SSW 1.0 mph 6.0 mph 97% 0.00 in RA
TarryTown NY Weather
Compliments of Weather Underground - 1.75 mb